Terminal Aerodrome Forecast
Issued by NWS

Home | Current Version | Previous Version | Text Only | Print | Product List | Glossary On
Versions: 1 2 3 4 5 6 7 8 9 10 11 12 13 14 15
000
FTUS41 KBTV 030534
TAFMPV
TAF
KMPV 030534Z 0306/0406 31009KT P6SM FEW250
     FM031100 VRB03KT P6SM FEW080 SCT180
     FM031900 17008G18KT P6SM SCT040 BKN150
     FM032300 17011G20KT 3SM -SHSN BR SCT010 OVC030
     FM040100 17014G26KT 2SM -SN BR SCT008 OVC015=

USA.gov is the U.S. government's official web portal to all federal, state and local government web resources and services.